sensor_id;sensor_type;location;lat;lon;timestamp;pressure;altitude;pressure_sealevel;temperature;humidity
62038;BME280;47991;42.974;12.082;2024-02-04T00:02:07;98858.81;;;6.31;69.40
62038;BME280;47991;42.974;12.082;2024-02-04T00:04:36;98855.81;;;6.31;68.75
62038;BME280;47991;42.974;12.082;2024-02-04T00:07:03;98856.83;;;6.23;68.77
62038;BME280;47991;42.974;12.082;2024-02-04T00:09:30;98859.39;;;6.11;68.50
62038;BME280;47991;42.974;12.082;2024-02-04T00:11:57;98861.71;;;5.96;69.36
62038;BME280;47991;42.974;12.082;2024-02-04T00:14:25;98859.89;;;5.90;69.65
62038;BME280;47991;42.974;12.082;2024-02-04T00:16:52;98863.20;;;5.87;70.02
62038;BME280;47991;42.974;12.082;2024-02-04T00:19:19;98862.48;;;5.84;70.76
62038;BME280;47991;42.974;12.082;2024-02-04T00:21:46;98862.98;;;5.83;70.65
62038;BME280;47991;42.974;12.082;2024-02-04T00:24:13;98858.80;;;5.84;70.06
62038;BME280;47991;42.974;12.082;2024-02-04T00:26:40;98862.92;;;5.75;71.43
62038;BME280;47991;42.974;12.082;2024-02-04T00:29:08;98860.42;;;5.70;71.89
62038;BME280;47991;42.974;12.082;2024-02-04T00:31:35;98857.10;;;5.71;71.94
62038;BME280;47991;42.974;12.082;2024-02-04T00:34:02;98860.48;;;5.75;71.81
62038;BME280;47991;42.974;12.082;2024-02-04T00:36:29;98855.51;;;5.69;72.22
62038;BME280;47991;42.974;12.082;2024-02-04T00:38:56;98854.79;;;5.67;71.54
62038;BME280;47991;42.974;12.082;2024-02-04T00:41:23;98854.41;;;5.63;72.17
62038;BME280;47991;42.974;12.082;2024-02-04T00:43:50;98852.19;;;5.50;71.60
62038;BME280;47991;42.974;12.082;2024-02-04T00:46:18;98848.98;;;5.45;75.39
62038;BME280;47991;42.974;12.082;2024-02-04T00:48:45;98853.87;;;5.43;74.26
62038;BME280;47991;42.974;12.082;2024-02-04T00:51:12;98847.72;;;5.41;73.51
62038;BME280;47991;42.974;12.082;2024-02-04T00:53:40;98843.48;;;5.39;74.36
62038;BME280;47991;42.974;12.082;2024-02-04T00:56:08;98843.46;;;5.37;74.14
62038;BME280;47991;42.974;12.082;2024-02-04T00:58:36;98841.69;;;5.35;75.09
62038;BME280;47991;42.974;12.082;2024-02-04T01:01:03;98841.51;;;5.35;75.58
62038;BME280;47991;42.974;12.082;2024-02-04T01:03:31;98842.72;;;5.33;75.72
62038;BME280;47991;42.974;12.082;2024-02-04T01:05:58;98845.18;;;5.33;75.45
62038;BME280;47991;42.974;12.082;2024-02-04T01:08:25;98845.71;;;5.35;74.69
62038;BME280;47991;42.974;12.082;2024-02-04T01:10:52;98841.33;;;5.33;75.68
62038;BME280;47991;42.974;12.082;2024-02-04T01:13:20;98844.48;;;5.34;76.33
62038;BME280;47991;42.974;12.082;2024-02-04T01:15:47;98845.16;;;5.32;77.13
62038;BME280;47991;42.974;12.082;2024-02-04T01:18:14;98845.32;;;5.30;76.28
62038;BME280;47991;42.974;12.082;2024-02-04T01:20:41;98848.82;;;5.29;75.87
62038;BME280;47991;42.974;12.082;2024-02-04T01:23:08;98849.99;;;5.23;75.55
62038;BME280;47991;42.974;12.082;2024-02-04T01:25:35;98854.27;;;5.15;76.73
62038;BME280;47991;42.974;12.082;2024-02-04T01:28:03;98848.36;;;5.18;78.36
62038;BME280;47991;42.974;12.082;2024-02-04T01:30:30;98841.23;;;5.23;77.46
62038;BME280;47991;42.974;12.082;2024-02-04T01:32:59;98841.74;;;5.22;77.77
62038;BME280;47991;42.974;12.082;2024-02-04T01:35:26;98841.65;;;5.14;77.90
62038;BME280;47991;42.974;12.082;2024-02-04T01:37:52;98837.59;;;5.11;77.84
62038;BME280;47991;42.974;12.082;2024-02-04T01:40:20;98840.05;;;5.12;78.77
62038;BME280;47991;42.974;12.082;2024-02-04T01:42:47;98838.15;;;5.13;79.69
62038;BME280;47991;42.974;12.082;2024-02-04T01:45:14;98839.77;;;5.18;78.47
62038;BME280;47991;42.974;12.082;2024-02-04T01:47:41;98838.44;;;5.24;80.06
62038;BME280;47991;42.974;12.082;2024-02-04T01:50:08;98838.86;;;5.16;79.08
62038;BME280;47991;42.974;12.082;2024-02-04T01:52:37;98833.54;;;5.10;79.69
62038;BME280;47991;42.974;12.082;2024-02-04T01:55:06;98830.69;;;5.05;79.07
62038;BME280;47991;42.974;12.082;2024-02-04T01:57:34;98830.15;;;5.03;81.35
62038;BME280;47991;42.974;12.082;2024-02-04T02:00:04;98826.54;;;5.11;82.45
62038;BME280;47991;42.974;12.082;2024-02-04T02:02:34;98827.00;;;5.20;84.78
62038;BME280;47991;42.974;12.082;2024-02-04T02:05:55;98818.33;;;5.13;81.99
62038;BME280;47991;42.974;12.082;2024-02-04T02:08:23;98814.16;;;5.00;80.34
62038;BME280;47991;42.974;12.082;2024-02-04T02:10:51;98812.19;;;4.96;82.76
62038;BME280;47991;42.974;12.082;2024-02-04T02:13:27;98810.46;;;4.98;84.10
62038;BME280;47991;42.974;12.082;2024-02-04T02:15:58;98807.05;;;4.92;81.76
62038;BME280;47991;42.974;12.082;2024-02-04T02:18:37;98804.66;;;4.81;81.57
62038;BME280;47991;42.974;12.082;2024-02-04T02:26:50;98801.59;;;4.72;81.70
62038;BME280;47991;42.974;12.082;2024-02-04T02:29:18;98803.13;;;4.54;83.03
62038;BME280;47991;42.974;12.082;2024-02-04T02:31:45;98804.45;;;4.47;81.95
62038;BME280;47991;42.974;12.082;2024-02-04T02:34:12;98801.21;;;4.42;82.97
62038;BME280;47991;42.974;12.082;2024-02-04T02:36:45;98804.54;;;4.28;83.78
62038;BME280;47991;42.974;12.082;2024-02-04T02:39:25;98812.95;;;4.28;86.76
62038;BME280;47991;42.974;12.082;2024-02-04T02:41:57;98811.05;;;4.44;84.27
62038;BME280;47991;42.974;12.082;2024-02-04T02:44:28;98808.89;;;4.53;84.41
62038;BME280;47991;42.974;12.082;2024-02-04T02:46:57;98799.21;;;4.49;85.15
62038;BME280;47991;42.974;12.082;2024-02-04T02:49:27;98791.11;;;4.46;84.54
62038;BME280;47991;42.974;12.082;2024-02-04T02:51:54;98794.23;;;4.30;84.05
62038;BME280;47991;42.974;12.082;2024-02-04T02:54:21;98796.02;;;4.19;85.64
62038;BME280;47991;42.974;12.082;2024-02-04T02:56:48;98790.23;;;4.30;88.85
62038;BME280;47991;42.974;12.082;2024-02-04T02:59:21;98791.19;;;4.37;86.71
62038;BME280;47991;42.974;12.082;2024-02-04T03:01:48;98792.71;;;4.21;85.35
62038;BME280;47991;42.974;12.082;2024-02-04T03:04:15;98792.98;;;4.14;86.31
62038;BME280;47991;42.974;12.082;2024-02-04T03:06:42;98787.79;;;4.18;85.51
62038;BME280;47991;42.974;12.082;2024-02-04T03:09:09;98786.16;;;4.15;84.56
62038;BME280;47991;42.974;12.082;2024-02-04T03:11:37;98785.64;;;4.02;88.15
62038;BME280;47991;42.974;12.082;2024-02-04T03:14:04;98785.15;;;4.18;89.06
62038;BME280;47991;42.974;12.082;2024-02-04T03:16:32;98781.77;;;4.26;87.63
62038;BME280;47991;42.974;12.082;2024-02-04T03:18:59;98778.74;;;4.23;87.34
62038;BME280;47991;42.974;12.082;2024-02-04T03:21:26;98781.14;;;4.17;84.98
62038;BME280;47991;42.974;12.082;2024-02-04T03:23:53;98784.58;;;4.02;87.50
62038;BME280;47991;42.974;12.082;2024-02-04T03:26:20;98781.40;;;3.99;88.13
62038;BME280;47991;42.974;12.082;2024-02-04T03:28:47;98789.46;;;4.13;87.82
62038;BME280;47991;42.974;12.082;2024-02-04T03:31:21;98795.55;;;4.24;89.25
62038;BME280;47991;42.974;12.082;2024-02-04T03:33:48;98790.70;;;4.13;86.95
62038;BME280;47991;42.974;12.082;2024-02-04T03:36:22;98781.67;;;3.94;87.84
62038;BME280;47991;42.974;12.082;2024-02-04T03:38:51;98778.98;;;3.89;87.16
62038;BME280;47991;42.974;12.082;2024-02-04T03:41:18;98775.63;;;4.00;87.99
62038;BME280;47991;42.974;12.082;2024-02-04T03:43:45;98783.77;;;4.06;88.23
62038;BME280;47991;42.974;12.082;2024-02-04T03:46:16;98791.91;;;4.13;87.52
62038;BME280;47991;42.974;12.082;2024-02-04T03:48:43;98792.59;;;3.98;87.51
62038;BME280;47991;42.974;12.082;2024-02-04T03:51:18;98799.68;;;3.82;88.32
62038;BME280;47991;42.974;12.082;2024-02-04T03:53:45;98802.85;;;3.72;86.91
62038;BME280;47991;42.974;12.082;2024-02-04T03:56:15;98801.91;;;3.67;88.40
62038;BME280;47991;42.974;12.082;2024-02-04T03:58:42;98798.44;;;3.58;88.98
62038;BME280;47991;42.974;12.082;2024-02-04T04:01:10;98796.89;;;3.48;88.13
62038;BME280;47991;42.974;12.082;2024-02-04T04:03:44;98796.60;;;3.42;87.82
62038;BME280;47991;42.974;12.082;2024-02-04T04:06:11;98799.24;;;3.32;87.27
62038;BME280;47991;42.974;12.082;2024-02-04T04:08:38;98792.40;;;3.31;90.18
62038;BME280;47991;42.974;12.082;2024-02-04T04:11:08;98786.33;;;3.33;88.71
62038;BME280;47991;42.974;12.082;2024-02-04T04:13:37;98782.40;;;3.29;88.18
62038;BME280;47991;42.974;12.082;2024-02-04T04:16:06;98780.42;;;3.36;89.35
62038;BME280;47991;42.974;12.082;2024-02-04T04:18:33;98780.08;;;3.47;89.09
62038;BME280;47991;42.974;12.082;2024-02-04T04:21:01;98776.59;;;3.36;87.48
62038;BME280;47991;42.974;12.082;2024-02-04T04:23:28;98775.80;;;3.22;87.05
62038;BME280;47991;42.974;12.082;2024-02-04T04:25:55;98778.16;;;3.15;87.69
62038;BME280;47991;42.974;12.082;2024-02-04T04:28:22;98773.11;;;3.17;88.31
62038;BME280;47991;42.974;12.082;2024-02-04T04:30:49;98763.79;;;3.13;87.83
62038;BME280;47991;42.974;12.082;2024-02-04T04:33:19;98756.23;;;3.11;87.90
62038;BME280;47991;42.974;12.082;2024-02-04T04:35:46;98758.27;;;3.07;87.11
62038;BME280;47991;42.974;12.082;2024-02-04T04:38:13;98764.09;;;3.10;86.97
62038;BME280;47991;42.974;12.082;2024-02-04T04:40:40;98760.89;;;3.17;87.15
62038;BME280;47991;42.974;12.082;2024-02-04T04:43:07;98761.02;;;3.24;87.61
62038;BME280;47991;42.974;12.082;2024-02-04T04:45:34;98761.98;;;3.29;87.86
62038;BME280;47991;42.974;12.082;2024-02-04T04:48:01;98761.86;;;3.23;87.07
62038;BME280;47991;42.974;12.082;2024-02-04T04:50:28;98759.73;;;3.21;88.05
62038;BME280;47991;42.974;12.082;2024-02-04T04:52:55;98756.92;;;3.21;88.28
62038;BME280;47991;42.974;12.082;2024-02-04T04:55:22;98747.02;;;3.23;88.78
62038;BME280;47991;42.974;12.082;2024-02-04T04:57:50;98748.78;;;3.24;88.14
62038;BME280;47991;42.974;12.082;2024-02-04T05:00:19;98748.23;;;3.24;87.37
62038;BME280;47991;42.974;12.082;2024-02-04T05:02:46;98749.08;;;3.22;87.84
62038;BME280;47991;42.974;12.082;2024-02-04T05:05:14;98743.25;;;3.17;88.41
62038;BME280;47991;42.974;12.082;2024-02-04T05:07:42;98746.81;;;3.11;88.48
62038;BME280;47991;42.974;12.082;2024-02-04T05:10:09;98747.48;;;3.09;88.92
62038;BME280;47991;42.974;12.082;2024-02-04T05:12:36;98752.23;;;3.11;92.38
62038;BME280;47991;42.974;12.082;2024-02-04T05:15:05;98756.89;;;3.08;91.53
62038;BME280;47991;42.974;12.082;2024-02-04T05:17:32;98748.52;;;3.09;90.08
62038;BME280;47991;42.974;12.082;2024-02-04T05:20:00;98740.41;;;3.05;93.32
62038;BME280;47991;42.974;12.082;2024-02-04T05:22:29;98742.73;;;2.97;89.94
62038;BME280;47991;42.974;12.082;2024-02-04T05:24:56;98734.80;;;2.83;89.14
62038;BME280;47991;42.974;12.082;2024-02-04T05:27:23;98731.60;;;2.81;89.10
62038;BME280;47991;42.974;12.082;2024-02-04T05:29:50;98736.70;;;2.82;89.04
62038;BME280;47991;42.974;12.082;2024-02-04T05:32:17;98734.42;;;2.82;89.57
62038;BME280;47991;42.974;12.082;2024-02-04T05:34:44;98736.64;;;2.80;88.95
62038;BME280;47991;42.974;12.082;2024-02-04T05:37:11;98748.04;;;2.82;88.59
62038;BME280;47991;42.974;12.082;2024-02-04T05:39:38;98756.68;;;2.86;88.41
62038;BME280;47991;42.974;12.082;2024-02-04T05:42:05;98754.17;;;2.93;88.17
62038;BME280;47991;42.974;12.082;2024-02-04T05:44:32;98745.42;;;2.92;88.11
62038;BME280;47991;42.974;12.082;2024-02-04T05:47:00;98747.48;;;2.90;87.77
62038;BME280;47991;42.974;12.082;2024-02-04T05:49:27;98748.67;;;2.88;88.01
62038;BME280;47991;42.974;12.082;2024-02-04T05:51:54;98745.48;;;2.85;87.85
62038;BME280;47991;42.974;12.082;2024-02-04T05:54:21;98749.46;;;2.84;88.12
62038;BME280;47991;42.974;12.082;2024-02-04T05:56:48;98743.13;;;2.81;87.50
62038;BME280;47991;42.974;12.082;2024-02-04T05:59:15;98737.77;;;2.74;87.21
62038;BME280;47991;42.974;12.082;2024-02-04T06:01:43;98737.23;;;2.72;87.60
62038;BME280;47991;42.974;12.082;2024-02-04T06:04:11;98738.14;;;2.75;87.71
62038;BME280;47991;42.974;12.082;2024-02-04T06:06:38;98732.21;;;2.76;88.61
62038;BME280;47991;42.974;12.082;2024-02-04T06:09:06;98739.26;;;2.79;88.43
62038;BME280;47991;42.974;12.082;2024-02-04T06:11:33;98747.00;;;2.83;88.82
62038;BME280;47991;42.974;12.082;2024-02-04T06:14:00;98755.63;;;2.77;92.58
62038;BME280;47991;42.974;12.082;2024-02-04T06:16:27;98759.47;;;2.58;94.58
62038;BME280;47991;42.974;12.082;2024-02-04T06:18:54;98756.40;;;2.53;92.01
62038;BME280;47991;42.974;12.082;2024-02-04T06:21:24;98757.90;;;2.49;90.46
62038;BME280;47991;42.974;12.082;2024-02-04T06:23:51;98758.70;;;2.54;89.85
62038;BME280;47991;42.974;12.082;2024-02-04T06:26:18;98757.34;;;2.56;90.03
62038;BME280;47991;42.974;12.082;2024-02-04T06:28:45;98767.77;;;2.55;89.47
62038;BME280;47991;42.974;12.082;2024-02-04T06:31:13;98768.98;;;2.53;88.49
62038;BME280;47991;42.974;12.082;2024-02-04T06:33:40;98765.39;;;2.49;88.34
62038;BME280;47991;42.974;12.082;2024-02-04T06:36:10;98761.88;;;2.48;89.12
62038;BME280;47991;42.974;12.082;2024-02-04T06:38:37;98750.81;;;2.53;89.38
62038;BME280;47991;42.974;12.082;2024-02-04T06:41:05;98737.27;;;2.47;88.56
62038;BME280;47991;42.974;12.082;2024-02-04T06:43:32;98737.93;;;2.37;88.35
62038;BME280;47991;42.974;12.082;2024-02-04T06:45:59;98736.75;;;2.39;89.02
62038;BME280;47991;42.974;12.082;2024-02-04T06:48:26;98738.68;;;2.49;89.55
62038;BME280;47991;42.974;12.082;2024-02-04T06:50:53;98738.05;;;2.61;89.58
62038;BME280;47991;42.974;12.082;2024-02-04T06:53:20;98732.46;;;2.71;89.34
62038;BME280;47991;42.974;12.082;2024-02-04T06:55:47;98740.23;;;2.75;88.77
62038;BME280;47991;42.974;12.082;2024-02-04T06:58:13;98743.92;;;2.86;90.21
62038;BME280;47991;42.974;12.082;2024-02-04T07:00:40;98749.46;;;2.93;92.07
62038;BME280;47991;42.974;12.082;2024-02-04T07:03:08;98756.10;;;2.93;93.55
62038;BME280;47991;42.974;12.082;2024-02-04T07:05:35;98766.14;;;3.17;91.45
62038;BME280;47991;42.974;12.082;2024-02-04T07:08:02;98781.68;;;3.28;91.97
62038;BME280;47991;42.974;12.082;2024-02-04T07:10:29;98790.11;;;3.41;91.34
62038;BME280;47991;42.974;12.082;2024-02-04T07:12:56;98788.58;;;3.54;90.14
62038;BME280;47991;42.974;12.082;2024-02-04T07:15:23;98794.51;;;3.64;90.35
62038;BME280;47991;42.974;12.082;2024-02-04T07:17:50;98810.08;;;3.64;89.82
62038;BME280;47991;42.974;12.082;2024-02-04T07:20:17;98823.33;;;3.73;89.58
62038;BME280;47991;42.974;12.082;2024-02-04T07:22:45;98818.59;;;3.82;89.86
62038;BME280;47991;42.974;12.082;2024-02-04T07:25:12;98823.57;;;3.88;89.86
62038;BME280;47991;42.974;12.082;2024-02-04T07:27:39;98838.31;;;3.90;89.98
62038;BME280;47991;42.974;12.082;2024-02-04T07:30:07;98846.07;;;3.95;90.65
62038;BME280;47991;42.974;12.082;2024-02-04T07:32:34;98836.35;;;4.00;91.03
62038;BME280;47991;42.974;12.082;2024-02-04T07:35:05;98823.05;;;4.00;90.27
62038;BME280;47991;42.974;12.082;2024-02-04T07:37:32;98817.55;;;3.95;89.54
62038;BME280;47991;42.974;12.082;2024-02-04T07:40:01;98824.84;;;3.91;89.44
62038;BME280;47991;42.974;12.082;2024-02-04T07:42:28;98830.22;;;3.88;90.50
62038;BME280;47991;42.974;12.082;2024-02-04T07:44:55;98818.97;;;3.96;90.77
62038;BME280;47991;42.974;12.082;2024-02-04T07:47:22;98818.04;;;4.04;90.78
62038;BME280;47991;42.974;12.082;2024-02-04T07:49:49;98824.67;;;4.15;91.06
62038;BME280;47991;42.974;12.082;2024-02-04T07:52:16;98829.42;;;4.30;92.00
62038;BME280;47991;42.974;12.082;2024-02-04T07:54:44;98828.21;;;4.43;92.10
62038;BME280;47991;42.974;12.082;2024-02-04T07:57:12;98821.88;;;4.55;92.21
62038;BME280;47991;42.974;12.082;2024-02-04T07:59:39;98817.67;;;4.69;91.95
62038;BME280;47991;42.974;12.082;2024-02-04T08:02:06;98806.98;;;4.84;91.12
62038;BME280;47991;42.974;12.082;2024-02-04T08:04:33;98798.62;;;5.06;91.47
62038;BME280;47991;42.974;12.082;2024-02-04T08:07:01;98803.42;;;5.30;92.50
62038;BME280;47991;42.974;12.082;2024-02-04T08:09:28;98814.44;;;5.45;94.74
62038;BME280;47991;42.974;12.082;2024-02-04T08:11:55;98810.83;;;5.54;95.76
62038;BME280;47991;42.974;12.082;2024-02-04T08:14:22;98804.92;;;5.61;94.74
62038;BME280;47991;42.974;12.082;2024-02-04T08:16:49;98814.67;;;5.76;96.39
62038;BME280;47991;42.974;12.082;2024-02-04T08:19:16;98820.73;;;5.85;95.47
62038;BME280;47991;42.974;12.082;2024-02-04T08:21:44;98823.41;;;5.70;94.26
62038;BME280;47991;42.974;12.082;2024-02-04T08:24:11;98825.77;;;5.58;92.80
62038;BME280;47991;42.974;12.082;2024-02-04T08:26:38;98826.90;;;5.47;93.62
62038;BME280;47991;42.974;12.082;2024-02-04T08:29:04;98829.92;;;5.51;92.48
62038;BME280;47991;42.974;12.082;2024-02-04T08:31:32;98835.09;;;5.42;92.93
62038;BME280;47991;42.974;12.082;2024-02-04T08:34:00;98840.04;;;5.45;93.09
62038;BME280;47991;42.974;12.082;2024-02-04T08:36:27;98837.98;;;5.51;93.57
62038;BME280;47991;42.974;12.082;2024-02-04T08:38:54;98839.84;;;5.64;93.37
62038;BME280;47991;42.974;12.082;2024-02-04T08:41:22;98836.66;;;5.81;92.88
62038;BME280;47991;42.974;12.082;2024-02-04T08:43:49;98833.19;;;5.88;92.13
62038;BME280;47991;42.974;12.082;2024-02-04T08:46:17;98822.98;;;6.05;92.05
62038;BME280;47991;42.974;12.082;2024-02-04T08:48:44;98820.48;;;6.25;91.77
62038;BME280;47991;42.974;12.082;2024-02-04T08:51:12;98826.02;;;6.41;91.97
62038;BME280;47991;42.974;12.082;2024-02-04T08:53:40;98832.08;;;6.55;91.33
62038;BME280;47991;42.974;12.082;2024-02-04T08:56:07;98833.50;;;6.62;92.29
62038;BME280;47991;42.974;12.082;2024-02-04T08:58:35;98833.83;;;6.56;91.54
62038;BME280;47991;42.974;12.082;2024-02-04T09:01:04;98840.80;;;6.46;90.92
62038;BME280;47991;42.974;12.082;2024-02-04T09:03:32;98845.03;;;6.47;90.92
62038;BME280;47991;42.974;12.082;2024-02-04T09:05:59;98860.94;;;6.36;91.95
62038;BME280;47991;42.974;12.082;2024-02-04T09:08:27;98874.17;;;6.47;91.96
62038;BME280;47991;42.974;12.082;2024-02-04T09:10:54;98882.81;;;6.50;91.27
62038;BME280;47991;42.974;12.082;2024-02-04T09:13:21;98889.84;;;6.52;91.62
62038;BME280;47991;42.974;12.082;2024-02-04T09:15:50;98887.39;;;6.52;91.25
62038;BME280;47991;42.974;12.082;2024-02-04T09:18:17;98884.90;;;6.47;90.95
62038;BME280;47991;42.974;12.082;2024-02-04T09:20:44;98883.48;;;6.45;90.82
62038;BME280;47991;42.974;12.082;2024-02-04T09:23:12;98881.52;;;6.39;90.90
62038;BME280;47991;42.974;12.082;2024-02-04T09:25:39;98870.79;;;6.35;90.91
62038;BME280;47991;42.974;12.082;2024-02-04T09:28:06;98858.55;;;6.47;90.81
62038;BME280;47991;42.974;12.082;2024-02-04T09:30:33;98861.27;;;6.61;90.94
62038;BME280;47991;42.974;12.082;2024-02-04T09:33:00;98872.41;;;6.78;90.66
62038;BME280;47991;42.974;12.082;2024-02-04T09:35:27;98871.25;;;6.93;90.14
62038;BME280;47991;42.974;12.082;2024-02-04T09:37:54;98871.81;;;7.05;89.68
62038;BME280;47991;42.974;12.082;2024-02-04T09:40:21;98875.72;;;7.17;89.60
62038;BME280;47991;42.974;12.082;2024-02-04T09:42:48;98881.05;;;7.27;89.18
62038;BME280;47991;42.974;12.082;2024-02-04T09:45:16;98875.42;;;7.40;88.82
62038;BME280;47991;42.974;12.082;2024-02-04T09:47:45;98875.27;;;7.48;88.02
62038;BME280;47991;42.974;12.082;2024-02-04T09:50:13;98885.67;;;7.52;87.65
62038;BME280;47991;42.974;12.082;2024-02-04T09:52:40;98885.65;;;7.54;87.14
62038;BME280;47991;42.974;12.082;2024-02-04T09:55:12;98880.57;;;7.57;86.90
62038;BME280;47991;42.974;12.082;2024-02-04T09:57:42;98876.88;;;7.66;86.90
62038;BME280;47991;42.974;12.082;2024-02-04T10:00:11;98867.91;;;7.71;86.66
62038;BME280;47991;42.974;12.082;2024-02-04T10:02:41;98858.40;;;7.68;85.02
62038;BME280;47991;42.974;12.082;2024-02-04T10:05:08;98861.74;;;7.67;85.38
62038;BME280;47991;42.974;12.082;2024-02-04T10:07:37;98864.57;;;7.69;85.70
62038;BME280;47991;42.974;12.082;2024-02-04T10:10:06;98869.33;;;7.74;85.41
62038;BME280;47991;42.974;12.082;2024-02-04T10:12:33;98875.49;;;7.73;85.19
62038;BME280;47991;42.974;12.082;2024-02-04T10:15:03;98884.29;;;7.80;85.50
62038;BME280;47991;42.974;12.082;2024-02-04T10:17:31;98888.69;;;7.84;85.46
62038;BME280;47991;42.974;12.082;2024-02-04T10:19:58;98888.67;;;7.83;85.34
62038;BME280;47991;42.974;12.082;2024-02-04T10:22:26;98885.89;;;7.85;85.68
62038;BME280;47991;42.974;12.082;2024-02-04T10:25:05;98892.58;;;7.93;85.51
62038;BME280;47991;42.974;12.082;2024-02-04T10:27:34;98902.42;;;7.88;84.79
62038;BME280;47991;42.974;12.082;2024-02-04T10:30:03;98893.80;;;7.84;85.03
62038;BME280;47991;42.974;12.082;2024-02-04T10:32:31;98885.88;;;7.85;85.02
62038;BME280;47991;42.974;12.082;2024-02-04T10:34:58;98877.08;;;7.86;84.34
62038;BME280;47991;42.974;12.082;2024-02-04T10:37:27;98874.08;;;7.98;84.67
62038;BME280;47991;42.974;12.082;2024-02-04T10:39:55;98875.84;;;8.16;84.16
62038;BME280;47991;42.974;12.082;2024-02-04T10:42:26;98876.52;;;8.34;83.98
62038;BME280;47991;42.974;12.082;2024-02-04T10:44:54;98875.81;;;8.54;84.04
62038;BME280;47991;42.974;12.082;2024-02-04T10:47:30;98859.03;;;8.69;83.48
62038;BME280;47991;42.974;12.082;2024-02-04T10:50:02;98848.96;;;8.74;82.82
62038;BME280;47991;42.974;12.082;2024-02-04T10:52:39;98838.73;;;8.74;82.82
62038;BME280;47991;42.974;12.082;2024-02-04T10:55:08;98832.36;;;8.81;82.84
62038;BME280;47991;42.974;12.082;2024-02-04T10:57:39;98828.41;;;8.97;82.76
62038;BME280;47991;42.974;12.082;2024-02-04T11:00:07;98827.80;;;9.11;81.91
62038;BME280;47991;42.974;12.082;2024-02-04T11:02:35;98815.88;;;9.29;81.63
62038;BME280;47991;42.974;12.082;2024-02-04T11:05:05;98798.88;;;9.35;80.75
62038;BME280;47991;42.974;12.082;2024-02-04T11:07:33;98790.14;;;9.50;81.00
62038;BME280;47991;42.974;12.082;2024-02-04T11:10:01;98785.88;;;9.74;80.36
62038;BME280;47991;42.974;12.082;2024-02-04T11:12:30;98784.20;;;10.04;80.09
62038;BME280;47991;42.974;12.082;2024-02-04T11:15:04;98783.09;;;10.43;79.90
62038;BME280;47991;42.974;12.082;2024-02-04T11:17:44;98780.48;;;10.97;78.97
62038;BME280;47991;42.974;12.082;2024-02-04T11:25:46;98797.30;;;12.01;74.74
62038;BME280;47991;42.974;12.082;2024-02-04T11:28:16;98803.27;;;12.05;74.03
62038;BME280;47991;42.974;12.082;2024-02-04T11:30:43;98806.52;;;11.79;73.12
62038;BME280;47991;42.974;12.082;2024-02-04T11:33:12;98807.88;;;11.49;73.50
62038;BME280;47991;42.974;12.082;2024-02-04T11:35:40;98794.44;;;11.24;73.86
62038;BME280;47991;42.974;12.082;2024-02-04T11:38:07;98793.49;;;11.03;74.31
62038;BME280;47991;42.974;12.082;2024-02-04T11:40:36;98791.19;;;10.91;74.23
62038;BME280;47991;42.974;12.082;2024-02-04T11:43:05;98788.20;;;10.88;75.21
62038;BME280;47991;42.974;12.082;2024-02-04T11:45:32;98785.17;;;10.91;75.13
62038;BME280;47991;42.974;12.082;2024-02-04T11:48:01;98783.52;;;10.82;75.25
62038;BME280;47991;42.974;12.082;2024-02-04T11:50:29;98783.73;;;10.79;74.95
62038;BME280;47991;42.974;12.082;2024-02-04T11:53:11;98786.88;;;10.68;76.19
62038;BME280;47991;42.974;12.082;2024-02-04T11:55:41;98780.79;;;10.74;76.46
62038;BME280;47991;42.974;12.082;2024-02-04T11:58:08;98779.39;;;10.99;76.77
62038;BME280;47991;42.974;12.082;2024-02-04T12:00:42;98776.51;;;11.15;76.59
62038;BME280;47991;42.974;12.082;2024-02-04T12:03:14;98770.36;;;11.24;76.42
62038;BME280;47991;42.974;12.082;2024-02-04T12:05:43;98757.83;;;11.22;75.67
62038;BME280;47991;42.974;12.082;2024-02-04T12:08:11;98757.08;;;11.25;75.64
62038;BME280;47991;42.974;12.082;2024-02-04T12:10:39;98754.67;;;11.20;75.02
62038;BME280;47991;42.974;12.082;2024-02-04T12:13:07;98752.04;;;11.30;75.72
62038;BME280;47991;42.974;12.082;2024-02-04T12:15:34;98739.02;;;11.47;76.09
62038;BME280;47991;42.974;12.082;2024-02-04T12:18:09;98740.14;;;11.75;76.44
62038;BME280;47991;42.974;12.082;2024-02-04T12:20:37;98733.61;;;12.04;75.50
62038;BME280;47991;42.974;12.082;2024-02-04T12:23:06;98730.73;;;12.35;74.94
62038;BME280;47991;42.974;12.082;2024-02-04T12:25:34;98723.26;;;12.62;74.28
62038;BME280;47991;42.974;12.082;2024-02-04T12:28:02;98718.95;;;12.89;72.91
62038;BME280;47991;42.974;12.082;2024-02-04T12:30:32;98722.56;;;13.01;72.72
62038;BME280;47991;42.974;12.082;2024-02-04T12:33:00;98723.77;;;13.11;71.75
62038;BME280;47991;42.974;12.082;2024-02-04T12:35:31;98718.85;;;13.16;72.30
62038;BME280;47991;42.974;12.082;2024-02-04T12:37:59;98711.98;;;13.22;72.58
62038;BME280;47991;42.974;12.082;2024-02-04T12:40:28;98714.78;;;13.31;72.03
62038;BME280;47991;42.974;12.082;2024-02-04T12:42:58;98711.09;;;13.37;71.48
62038;BME280;47991;42.974;12.082;2024-02-04T12:45:26;98699.38;;;13.44;71.27
62038;BME280;47991;42.974;12.082;2024-02-04T12:47:54;98702.38;;;13.53;71.14
62038;BME280;47991;42.974;12.082;2024-02-04T12:50:22;98703.27;;;13.60;70.63
62038;BME280;47991;42.974;12.082;2024-02-04T12:53:03;98690.91;;;13.63;70.66
62038;BME280;47991;42.974;12.082;2024-02-04T12:55:33;98679.71;;;13.70;71.14
62038;BME280;47991;42.974;12.082;2024-02-04T12:58:13;98673.24;;;13.73;70.63
62038;BME280;47991;42.974;12.082;2024-02-04T13:00:44;98675.86;;;13.95;70.39
62038;BME280;47991;42.974;12.082;2024-02-04T13:03:15;98676.88;;;14.21;69.06
62038;BME280;47991;42.974;12.082;2024-02-04T13:05:42;98673.23;;;14.31;68.07
62038;BME280;47991;42.974;12.082;2024-02-04T13:08:09;98671.35;;;14.47;67.20
62038;BME280;47991;42.974;12.082;2024-02-04T13:10:37;98673.81;;;14.67;67.11
62038;BME280;47991;42.974;12.082;2024-02-04T13:13:05;98676.45;;;14.80;67.62
62038;BME280;47991;42.974;12.082;2024-02-04T13:15:39;98679.97;;;14.81;68.32